createdAt,value
2022-12-02T00:01:05.481Z,-0.15
2022-12-02T00:03:37.572Z,-0.14
2022-12-02T00:06:06.805Z,-0.15
2022-12-02T00:08:37.658Z,-0.11
2022-12-02T00:11:24.996Z,-0.07
2022-12-02T00:13:53.888Z,-0.10
2022-12-02T00:16:23.973Z,-0.29
2022-12-02T00:18:53.432Z,-0.17
2022-12-02T00:21:22.813Z,-0.29
2022-12-02T00:23:51.237Z,-0.06
2022-12-02T00:26:22.244Z,-0.76
2022-12-02T00:28:50.954Z,-0.09
2022-12-02T00:31:19.428Z,-0.52
2022-12-02T00:33:47.985Z,-0.39
2022-12-02T00:36:17.037Z,-0.31
2022-12-02T00:38:45.414Z,-0.52
2022-12-02T00:41:13.730Z,-0.33
2022-12-02T00:44:00.663Z,-0.32
2022-12-02T00:46:35.269Z,-0.36
2022-12-02T00:49:07.739Z,-0.74
2022-12-02T00:51:37.473Z,-0.34
2022-12-02T00:54:06.307Z,-0.49
2022-12-02T00:56:35.217Z,-0.23
2022-12-02T00:59:06.263Z,-1.46
2022-12-02T01:01:36.819Z,-0.37
2022-12-02T01:04:05.268Z,-0.31
2022-12-02T01:06:33.700Z,-0.31
2022-12-02T01:09:02.280Z,-0.36
2022-12-02T01:11:30.629Z,-0.63
2022-12-02T01:13:58.989Z,-0.72
2022-12-02T01:16:29.169Z,-0.53
2022-12-02T01:18:57.618Z,-0.52
2022-12-02T01:21:25.997Z,-0.52
2022-12-02T01:23:54.524Z,-0.52
2022-12-02T01:26:23.043Z,-0.39
2022-12-02T01:28:51.759Z,-0.69
2022-12-02T01:31:20.247Z,-0.97
2022-12-02T01:33:50.033Z,-0.56
2022-12-02T01:36:18.414Z,-0.76
2022-12-02T01:38:46.820Z,-0.70
2022-12-02T01:41:15.156Z,-0.71
2022-12-02T01:43:44.475Z,-0.81
2022-12-02T01:46:13.865Z,-0.61
2022-12-02T01:48:42.631Z,-0.44
2022-12-02T01:51:12.678Z,-0.44
2022-12-02T01:53:41.894Z,-1.14
2022-12-02T01:56:11.767Z,-0.46
2022-12-02T01:58:40.590Z,-0.55
2022-12-02T02:01:24.555Z,-0.63
2022-12-02T02:03:53.103Z,-0.56
2022-12-02T02:06:23.489Z,-0.77
2022-12-02T02:08:52.017Z,-0.66
2022-12-02T02:11:20.487Z,-0.53
2022-12-02T02:13:49.580Z,-0.51
2022-12-02T02:16:18.605Z,-0.80
2022-12-02T02:18:47.306Z,-0.54
2022-12-02T02:21:20.782Z,-0.40
2022-12-02T02:23:50.653Z,-0.47
2022-12-02T02:26:19.934Z,-0.72
2022-12-02T02:28:48.375Z,-0.50
2022-12-02T02:31:17.733Z,-0.50
2022-12-02T02:33:46.603Z,-0.48
2022-12-02T02:36:15.113Z,-0.81
2022-12-02T02:38:43.579Z,-0.53
2022-12-02T02:41:13.699Z,-1.02
2022-12-02T02:43:42.611Z,-0.43
2022-12-02T02:46:11.885Z,-0.52
2022-12-02T02:48:41.094Z,-0.55
2022-12-02T02:51:11.880Z,-0.58
2022-12-02T02:53:40.837Z,-0.50
2022-12-02T02:56:10.452Z,-0.52
2022-12-02T02:58:40.455Z,-0.52
2022-12-02T03:01:13.235Z,-0.95
2022-12-02T03:03:45.754Z,-0.51
2022-12-02T03:06:15.690Z,-0.51
2022-12-02T03:08:47.219Z,-0.70
2022-12-02T03:11:15.902Z,-0.46
2022-12-02T03:13:50.242Z,-0.44
2022-12-02T03:16:23.007Z,-0.68
2022-12-02T03:18:55.002Z,-1.08
2022-12-02T03:21:24.512Z,-0.37
2022-12-02T03:23:54.865Z,-0.43
2022-12-02T03:26:23.245Z,-0.52
2022-12-02T03:28:55.127Z,-0.63
2022-12-02T03:31:24.143Z,-0.91
2022-12-02T03:33:53.013Z,-0.66
2022-12-02T03:36:21.948Z,-0.71
2022-12-02T03:38:50.627Z,-0.80
2022-12-02T03:41:19.768Z,-0.66
2022-12-02T03:43:48.512Z,-1.46
2022-12-02T03:46:18.442Z,-0.70
2022-12-02T03:48:47.503Z,-0.76
2022-12-02T03:51:17.272Z,-0.74
2022-12-02T03:53:46.161Z,-0.76
2022-12-02T03:56:15.229Z,-0.86
2022-12-02T03:58:48.186Z,-0.75
2022-12-02T04:01:18.693Z,-0.75
2022-12-02T04:03:47.797Z,-0.76
2022-12-02T04:06:16.867Z,-0.74
2022-12-02T04:08:45.270Z,-0.65
2022-12-02T04:11:13.703Z,-0.63
2022-12-02T04:13:42.079Z,-0.77
2022-12-02T04:16:10.610Z,-0.85
2022-12-02T04:18:40.449Z,-1.00
2022-12-02T04:21:08.835Z,-0.86
2022-12-02T04:23:37.583Z,-1.63
2022-12-02T04:26:05.911Z,-0.70
2022-12-02T04:28:34.503Z,-0.61
2022-12-02T04:31:03.031Z,-1.05
2022-12-02T04:33:31.799Z,-0.75
2022-12-02T04:36:02.249Z,-0.67
2022-12-02T04:38:30.660Z,-0.56
2022-12-02T04:40:59.092Z,-0.68
2022-12-02T04:43:27.624Z,-1.20
2022-12-02T04:45:55.956Z,-0.71
2022-12-02T04:48:24.657Z,-0.71
2022-12-02T04:50:53.015Z,-0.67
2022-12-02T04:53:22.864Z,-0.70
2022-12-02T04:55:51.240Z,-0.68
2022-12-02T04:58:19.697Z,-1.46
2022-12-02T05:00:48.030Z,-0.56
2022-12-02T05:03:16.588Z,-0.54
2022-12-02T05:05:44.987Z,-0.72
2022-12-02T05:08:13.442Z,-0.78
2022-12-02T05:10:43.298Z,-0.56
2022-12-02T05:13:11.638Z,-0.65
2022-12-02T05:15:40.343Z,-0.56
2022-12-02T05:18:08.847Z,-0.92
2022-12-02T05:20:37.169Z,-0.86
2022-12-02T05:23:05.713Z,-0.78
2022-12-02T05:25:34.113Z,-0.73
2022-12-02T05:28:03.888Z,-0.75
2022-12-02T05:30:32.399Z,-0.83
2022-12-02T05:33:00.839Z,-0.92
2022-12-02T05:35:29.188Z,-0.85
2022-12-02T05:38:03.157Z,-1.70
2022-12-02T05:40:33.333Z,-0.91
2022-12-02T05:43:19.664Z,-0.91
2022-12-02T05:45:48.536Z,-1.00
2022-12-02T05:48:19.078Z,-1.03
2022-12-02T05:50:48.997Z,-1.14
2022-12-02T05:53:24.481Z,-1.09
2022-12-02T05:55:53.076Z,-1.14
2022-12-02T05:58:24.077Z,-1.19
2022-12-02T06:00:56.565Z,-1.19
2022-12-02T06:03:25.371Z,-1.15
2022-12-02T06:05:55.186Z,-1.10
2022-12-02T06:08:25.225Z,-1.13
2022-12-02T06:10:57.279Z,-1.42
2022-12-02T06:13:29.433Z,-1.08
2022-12-02T06:15:59.949Z,-1.07
2022-12-02T06:18:31.977Z,-0.99
2022-12-02T06:21:03.208Z,-1.06
2022-12-02T06:23:35.796Z,-1.08
2022-12-02T06:26:04.340Z,-1.43
2022-12-02T06:28:38.137Z,-1.06
2022-12-02T06:31:25.410Z,-1.02
2022-12-02T06:33:59.285Z,-1.33
2022-12-02T06:36:31.635Z,-1.14
2022-12-02T06:39:03.034Z,-1.18
2022-12-02T06:41:34.681Z,-1.31
2022-12-02T06:44:31.514Z,-1.13
2022-12-02T06:47:01.097Z,-1.10
2022-12-02T06:49:39.416Z,-1.39
2022-12-02T06:52:22.816Z,-1.11
2022-12-02T06:54:54.363Z,-1.63
2022-12-02T06:57:22.820Z,-1.46
2022-12-02T06:59:53.878Z,-0.86
2022-12-02T07:02:27.228Z,-1.07
2022-12-02T07:04:57.132Z,-0.89
2022-12-02T07:07:30.074Z,-0.87
2022-12-02T07:09:59.957Z,-0.85
2022-12-02T07:12:36.769Z,-1.50
2022-12-02T07:15:23.917Z,-0.98
2022-12-02T07:17:52.769Z,-0.79
2022-12-02T07:20:31.253Z,-1.01
2022-12-02T07:23:01.831Z,-1.33
2022-12-02T07:25:35.635Z,-0.78
2022-12-02T07:28:11.451Z,-0.83
2022-12-02T07:30:43.800Z,-0.85
2022-12-02T07:33:12.345Z,-0.78
2022-12-02T07:35:40.767Z,-0.67
2022-12-02T07:38:09.411Z,-0.66
2022-12-02T07:40:37.792Z,-0.63
2022-12-02T07:43:06.221Z,-0.62
2022-12-02T07:45:35.788Z,-0.68
2022-12-02T07:48:06.092Z,-1.30
2022-12-02T07:50:35.006Z,-0.58
2022-12-02T07:53:03.403Z,-1.07
2022-12-02T07:55:32.634Z,-2.05
2022-12-02T07:58:01.180Z,-0.60
2022-12-02T08:00:29.689Z,-0.59
2022-12-02T08:02:58.174Z,-0.63
2022-12-02T08:05:28.040Z,-0.56
2022-12-02T08:07:57.001Z,-0.52
2022-12-02T08:10:25.830Z,-1.03
2022-12-02T08:12:54.218Z,-0.77
2022-12-02T08:15:22.688Z,-0.42
2022-12-02T08:17:51.129Z,-0.41
2022-12-02T08:20:19.657Z,-0.36
2022-12-02T08:22:49.918Z,-0.35
2022-12-02T08:25:19.113Z,-0.71
2022-12-02T08:27:47.627Z,-0.50
2022-12-02T08:30:17.951Z,-0.29
2022-12-02T08:32:46.868Z,-0.72
2022-12-02T08:35:15.379Z,-0.26
2022-12-02T08:37:43.867Z,-0.57
2022-12-02T08:40:14.474Z,-0.34
2022-12-02T08:42:44.007Z,-0.22
2022-12-02T08:45:13.285Z,-0.35
2022-12-02T08:47:42.643Z,-0.52
2022-12-02T08:50:11.729Z,-0.16
2022-12-02T08:52:40.359Z,-0.14
2022-12-02T08:55:09.143Z,-0.34
2022-12-02T08:57:39.048Z,-0.11
2022-12-02T09:00:09.511Z,-0.89
2022-12-02T09:02:38.073Z,-0.06
2022-12-02T09:05:07.151Z,-0.17
2022-12-02T09:07:35.578Z,-0.09
2022-12-02T09:10:04.895Z,-0.57
2022-12-02T09:12:33.301Z,-0.21
2022-12-02T09:15:03.731Z,-0.04
2022-12-02T09:17:32.086Z,-0.04
2022-12-02T09:20:00.855Z,-0.47
2022-12-02T09:22:29.216Z,-0.00
2022-12-02T09:24:58.280Z,0.02
2022-12-02T09:27:27.321Z,-0.17
2022-12-02T09:29:55.744Z,-0.51
2022-12-02T09:32:25.753Z,0.01
2022-12-02T09:34:54.841Z,-0.63
2022-12-02T09:37:24.363Z,-0.03
2022-12-02T09:39:52.758Z,-0.04
2022-12-02T09:42:21.863Z,-0.00
2022-12-02T09:44:51.390Z,-0.02
2022-12-02T09:47:21.308Z,-0.22
2022-12-02T09:49:51.313Z,-0.33
2022-12-02T09:52:26.120Z,-0.25
2022-12-02T09:54:57.095Z,-0.27
2022-12-02T09:57:28.894Z,-0.05
2022-12-02T09:59:57.932Z,-0.39
2022-12-02T10:02:30.292Z,0.02
2022-12-02T10:05:06.056Z,-0.44
2022-12-02T10:07:34.767Z,-0.34
2022-12-02T10:10:03.715Z,0.08
2022-12-02T10:12:34.564Z,0.15
2022-12-02T10:15:03.082Z,0.11
2022-12-02T10:17:32.573Z,-0.18
2022-12-02T10:20:02.911Z,-0.13
2022-12-02T10:22:31.279Z,-0.48
2022-12-02T10:25:02.651Z,-0.13
2022-12-02T10:27:34.054Z,-0.20
2022-12-02T10:30:17.226Z,-0.18
2022-12-02T10:33:00.408Z,-0.29
2022-12-02T10:35:43.739Z,-0.22
2022-12-02T10:38:30.464Z,-0.32
2022-12-02T10:41:15.256Z,-0.48
2022-12-02T10:43:45.199Z,-0.20
2022-12-02T10:46:14.413Z,-0.26
2022-12-02T10:48:43.293Z,-0.28
2022-12-02T10:51:15.894Z,-0.29
2022-12-02T10:53:45.597Z,-0.40
2022-12-02T10:56:19.815Z,-0.35
2022-12-02T10:58:51.380Z,-0.64
2022-12-02T11:01:21.804Z,-0.37
2022-12-02T11:03:50.648Z,-0.61
2022-12-02T11:06:22.558Z,-0.55
2022-12-02T11:08:51.240Z,-0.43
2022-12-02T11:11:39.680Z,-0.51
2022-12-02T11:14:13.334Z,-0.64
2022-12-02T11:16:53.956Z,-0.68
2022-12-02T11:19:43.608Z,-0.68
2022-12-02T11:22:51.118Z,-0.61
2022-12-02T11:26:07.008Z,-0.81
2022-12-02T11:29:30.320Z,-0.58
2022-12-02T11:32:18.639Z,-0.80
2022-12-02T11:37:42.066Z,-0.69
2022-12-02T11:41:01.897Z,-0.65
2022-12-02T11:43:54.372Z,-0.70
2022-12-02T11:46:24.587Z,-0.70
2022-12-02T11:48:56.663Z,-0.64
2022-12-02T11:51:34.928Z,-0.58
2022-12-02T11:54:03.632Z,-0.45
2022-12-02T11:56:37.725Z,-0.47
2022-12-02T11:59:21.120Z,-0.53
2022-12-02T12:01:50.516Z,-0.58
2022-12-02T12:04:26.779Z,-0.66
2022-12-02T12:06:57.689Z,-0.57
2022-12-02T12:09:26.493Z,-0.49
2022-12-02T12:12:11.612Z,-0.78
2022-12-02T12:14:59.742Z,-0.60
2022-12-02T12:17:44.345Z,-0.50
2022-12-02T12:20:45.234Z,-0.63
2022-12-02T12:23:30.959Z,-0.83
2022-12-02T12:25:59.367Z,-0.83
2022-12-02T12:28:29.475Z,-0.73
2022-12-02T12:31:00.659Z,-0.65
2022-12-02T12:33:30.048Z,-0.66
2022-12-02T12:35:59.733Z,-0.70
2022-12-02T12:38:30.992Z,-0.80
2022-12-02T12:41:00.580Z,-0.92
2022-12-02T12:43:29.050Z,-0.70
2022-12-02T12:45:58.908Z,-0.67
2022-12-02T12:48:27.308Z,-0.80
2022-12-02T12:50:56.472Z,-1.36
2022-12-02T12:53:25.340Z,-0.65
2022-12-02T12:55:59.327Z,-0.86
2022-12-02T12:58:29.796Z,-0.66
2022-12-02T13:01:00.638Z,-0.76
2022-12-02T13:03:29.228Z,-1.04
2022-12-02T13:05:58.239Z,-1.42
2022-12-02T13:08:27.101Z,-1.11
2022-12-02T13:10:55.531Z,-0.98
2022-12-02T13:13:24.041Z,-1.09
2022-12-02T13:15:53.105Z,-1.22
2022-12-02T13:18:22.877Z,-1.21
2022-12-02T13:20:51.434Z,-0.87
2022-12-02T13:23:20.422Z,-0.72
2022-12-02T13:25:48.784Z,-0.86
2022-12-02T13:28:17.099Z,-0.79
2022-12-02T13:30:45.639Z,-0.86
2022-12-02T13:33:14.336Z,-0.86
2022-12-02T13:35:44.200Z,-0.84
2022-12-02T13:38:12.612Z,-0.81
2022-12-02T13:40:41.058Z,-0.80
2022-12-02T13:43:09.543Z,-0.78
2022-12-02T13:45:38.296Z,-0.93
2022-12-02T13:48:12.955Z,-0.90
2022-12-02T13:50:43.480Z,-0.81
2022-12-02T13:53:11.987Z,-0.83
2022-12-02T13:55:40.282Z,-0.90
2022-12-02T13:58:08.720Z,-0.90
2022-12-02T14:00:37.155Z,-1.14
2022-12-02T14:03:05.472Z,-0.89
2022-12-02T14:05:34.467Z,-1.08
2022-12-02T14:08:04.901Z,-1.58
2022-12-02T14:10:33.262Z,-0.89
2022-12-02T14:13:01.702Z,-0.98
2022-12-02T14:15:30.021Z,-0.84
2022-12-02T14:17:59.038Z,-1.06
2022-12-02T14:20:27.354Z,-1.12
2022-12-02T14:22:56.132Z,-0.95
2022-12-02T14:25:25.967Z,-1.08
2022-12-02T14:27:54.338Z,-1.09
2022-12-02T14:30:22.806Z,-1.02
2022-12-02T14:32:51.236Z,-1.27
2022-12-02T14:35:19.509Z,-1.03
2022-12-02T14:37:47.903Z,-1.04
2022-12-02T14:40:16.224Z,-1.12
2022-12-02T14:42:46.100Z,-0.85
2022-12-02T14:45:14.376Z,-1.75
2022-12-02T14:47:43.073Z,-0.84
2022-12-02T14:50:12.391Z,-1.27
2022-12-02T14:52:40.734Z,-1.01
2022-12-02T14:55:09.876Z,-0.97
2022-12-02T14:57:38.557Z,-0.93
2022-12-02T15:00:09.934Z,-0.87
2022-12-02T15:02:38.733Z,-0.97
2022-12-02T15:05:14.053Z,-1.01
2022-12-02T15:07:43.043Z,-1.05
2022-12-02T15:10:12.596Z,-1.02
2022-12-02T15:12:41.822Z,-1.36
2022-12-02T15:18:01.257Z,-1.22
2022-12-02T15:20:29.777Z,-1.12
2022-12-02T15:22:58.304Z,-1.06
2022-12-02T15:25:26.925Z,-1.17
2022-12-02T15:27:55.653Z,-1.15
2022-12-02T15:30:25.450Z,-1.24
2022-12-02T15:32:53.901Z,-1.25
2022-12-02T15:35:22.405Z,-1.64
2022-12-02T15:37:50.874Z,-1.47
2022-12-02T15:40:19.751Z,-1.31
2022-12-02T15:42:48.097Z,-1.29
2022-12-02T15:45:16.490Z,-1.48
2022-12-02T15:47:46.278Z,-1.12
2022-12-02T15:50:14.728Z,-1.62
2022-12-02T15:52:43.258Z,-1.02
2022-12-02T15:55:12.057Z,-1.21
2022-12-02T15:57:40.804Z,-1.02
2022-12-02T16:00:10.586Z,-1.31
2022-12-02T16:02:38.953Z,-0.93
2022-12-02T16:05:09.529Z,-0.93
2022-12-02T16:07:38.487Z,-0.92
2022-12-02T16:10:08.015Z,-1.01
2022-12-02T16:12:36.788Z,-1.44
2022-12-02T16:15:05.925Z,-1.15
2022-12-02T16:17:34.808Z,-0.98
2022-12-02T16:20:03.397Z,-1.64
2022-12-02T16:22:35.303Z,-1.00
2022-12-02T16:25:03.717Z,-0.95
2022-12-02T16:27:32.162Z,-0.96
2022-12-02T16:30:00.785Z,-1.07
2022-12-02T16:32:29.278Z,-1.18
2022-12-02T16:34:57.813Z,-1.05
2022-12-02T16:37:26.320Z,-1.12
2022-12-02T16:39:56.079Z,-1.07
2022-12-02T16:42:24.608Z,-1.13
2022-12-02T16:44:55.995Z,-1.24
2022-12-02T16:47:24.857Z,-1.30
2022-12-02T16:49:53.575Z,-1.28
2022-12-02T16:52:22.128Z,-1.21
2022-12-02T16:54:50.972Z,-1.22
2022-12-02T16:57:21.029Z,-1.57
2022-12-02T16:59:49.419Z,-1.33
2022-12-02T17:02:17.879Z,-1.73
2022-12-02T17:04:46.913Z,-1.36
2022-12-02T17:07:15.337Z,-1.55
2022-12-02T17:09:43.693Z,-1.67
2022-12-02T17:12:12.256Z,-1.47
2022-12-02T17:14:42.086Z,-1.68
2022-12-02T17:17:37.807Z,-1.30
2022-12-02T17:19:59.123Z,-1.24
2022-12-02T17:22:27.683Z,-1.44
2022-12-02T17:24:55.996Z,-1.36
2022-12-02T17:27:24.399Z,-1.50
2022-12-02T17:29:54.622Z,-1.38
2022-12-02T17:32:23.037Z,-1.12
2022-12-02T17:34:52.573Z,-1.20
2022-12-02T17:37:21.112Z,-1.18
2022-12-02T17:39:49.605Z,-1.21
2022-12-02T17:42:19.070Z,-1.33
2022-12-02T17:44:47.834Z,-1.77
2022-12-02T17:47:19.346Z,-1.30
2022-12-02T17:49:47.830Z,-1.78
2022-12-02T17:52:20.883Z,-1.21
2022-12-02T17:54:49.945Z,-1.38
2022-12-02T17:57:18.510Z,-1.44
2022-12-02T17:59:47.058Z,-1.42
2022-12-02T18:02:17.159Z,-1.38
2022-12-02T18:04:47.000Z,-1.87
2022-12-02T18:07:15.689Z,-1.67
2022-12-02T18:09:44.252Z,-1.45
2022-12-02T18:12:12.735Z,-2.06
2022-12-02T18:14:41.326Z,-1.57
2022-12-02T18:17:09.818Z,-1.41
2022-12-02T18:19:38.342Z,-1.55
2022-12-02T18:22:08.218Z,-1.54
2022-12-02T18:24:36.641Z,-1.58
2022-12-02T18:27:05.538Z,-1.50
2022-12-02T18:29:33.986Z,-1.54
2022-12-02T18:32:02.449Z,-1.71
2022-12-02T18:34:31.926Z,-1.52
2022-12-02T18:37:00.693Z,-1.57
2022-12-02T18:39:30.514Z,-1.42
2022-12-02T18:41:59.151Z,-1.76
2022-12-02T18:44:28.387Z,-1.41
2022-12-02T18:46:57.519Z,-1.55
2022-12-02T18:49:26.104Z,-1.58
2022-12-02T18:51:55.119Z,-1.74
2022-12-02T18:54:24.552Z,-1.57
2022-12-02T18:56:54.469Z,-1.68
2022-12-02T18:59:22.966Z,-1.36
2022-12-02T19:01:51.995Z,-1.63
2022-12-02T19:04:20.878Z,-1.37
2022-12-02T19:06:49.576Z,-1.73
2022-12-02T19:09:18.165Z,-1.32
2022-12-02T19:11:46.461Z,-1.25
2022-12-02T19:14:17.837Z,-1.67
2022-12-02T19:16:47.811Z,-1.54
2022-12-02T19:19:17.612Z,-1.62
2022-12-02T19:21:47.113Z,-1.57
2022-12-02T19:24:16.789Z,-1.47
2022-12-02T19:26:46.629Z,-1.41
2022-12-02T19:29:17.857Z,-1.32
2022-12-02T19:31:47.409Z,-1.48
2022-12-02T19:34:17.153Z,-1.66
2022-12-02T19:36:48.346Z,-1.40
2022-12-02T19:39:18.143Z,-1.35
2022-12-02T19:41:47.926Z,-1.54
2022-12-02T19:44:19.172Z,-1.39
2022-12-02T19:46:49.070Z,-1.39
2022-12-02T19:49:18.822Z,-1.27
2022-12-02T19:51:48.459Z,-1.34
2022-12-02T19:54:18.723Z,-1.46
2022-12-02T19:56:47.780Z,-1.75
2022-12-02T19:59:19.000Z,-1.49
2022-12-02T20:01:48.331Z,-1.41
2022-12-02T20:04:40.023Z,-1.35
2022-12-02T20:07:07.809Z,-1.39
2022-12-02T20:09:37.445Z,-1.44
2022-12-02T20:12:07.609Z,-1.39
2022-12-02T20:14:38.857Z,-1.38
2022-12-02T20:17:08.902Z,-1.22
2022-12-02T20:19:38.865Z,-1.35
2022-12-02T20:22:08.577Z,-1.36
2022-12-02T20:24:38.535Z,-1.29
2022-12-02T20:27:08.361Z,-1.84
2022-12-02T20:29:40.213Z,-1.74
2022-12-02T20:32:09.942Z,-1.54
2022-12-02T20:34:39.751Z,-1.48
2022-12-02T20:37:08.550Z,-1.42
2022-12-02T20:39:38.796Z,-1.31
2022-12-02T20:42:08.683Z,-1.48
2022-12-02T20:44:40.197Z,-2.14
2022-12-02T20:47:10.023Z,-1.55
2022-12-02T20:49:39.857Z,-1.54
2022-12-02T20:52:09.387Z,-1.50
2022-12-02T20:54:39.167Z,-1.51
2022-12-02T20:57:09.012Z,-2.03
2022-12-02T20:59:40.366Z,-1.49
2022-12-02T21:02:15.011Z,-1.84
2022-12-02T21:04:44.821Z,-1.60
2022-12-02T21:07:15.139Z,-1.59
2022-12-02T21:09:44.911Z,-1.74
2022-12-02T21:12:14.500Z,-1.45
2022-12-02T21:14:45.802Z,-1.50
2022-12-02T21:17:15.455Z,-1.51
2022-12-02T21:19:44.981Z,-1.44
2022-12-02T21:22:15.098Z,-1.39
2022-12-02T21:24:45.219Z,-1.40
2022-12-02T21:27:15.947Z,-1.37
2022-12-02T21:29:47.754Z,-1.44
2022-12-02T21:32:19.333Z,-1.50
2022-12-02T21:34:49.654Z,-1.38
2022-12-02T21:37:19.630Z,-1.22
2022-12-02T21:39:50.310Z,-1.29
2022-12-02T21:42:21.739Z,-1.33
2022-12-02T21:44:53.124Z,-1.31
2022-12-02T21:47:22.437Z,-1.43
2022-12-02T21:49:52.501Z,-1.57
2022-12-02T21:52:22.353Z,-1.76
2022-12-02T21:54:52.483Z,-1.38
2022-12-02T21:57:22.739Z,-1.55
2022-12-02T21:59:54.017Z,-1.43
2022-12-02T22:02:22.582Z,-1.38
2022-12-02T22:04:51.501Z,-1.63
2022-12-02T22:07:37.417Z,-1.73
2022-12-02T22:10:06.623Z,-1.39
2022-12-02T22:12:34.999Z,-1.43
2022-12-02T22:15:04.835Z,-1.31
2022-12-02T22:17:33.215Z,-1.70
2022-12-02T22:20:01.845Z,-1.37
2022-12-02T22:22:30.274Z,-1.50
2022-12-02T22:24:58.592Z,-1.49
2022-12-02T22:27:27.049Z,-1.40
2022-12-02T22:29:55.689Z,-1.48
2022-12-02T22:32:25.559Z,-1.56
2022-12-02T22:34:54.174Z,-1.42
2022-12-02T22:37:22.767Z,-1.56
2022-12-02T22:39:51.071Z,-1.81
2022-12-02T22:42:19.420Z,-1.49
2022-12-02T22:44:48.083Z,-1.75
2022-12-02T22:47:16.382Z,-1.62
2022-12-02T22:49:46.337Z,-1.56
2022-12-02T22:52:14.946Z,-1.71
2022-12-02T22:54:43.540Z,-1.69
2022-12-02T22:57:11.844Z,-1.55
2022-12-02T22:59:40.254Z,-1.91
2022-12-02T23:02:13.901Z,-1.82
2022-12-02T23:04:46.678Z,-1.76
2022-12-02T23:07:15.182Z,-1.53
2022-12-02T23:09:43.480Z,-1.59
2022-12-02T23:12:11.876Z,-1.69
2022-12-02T23:14:40.552Z,-1.85
2022-12-02T23:17:09.274Z,-1.65
2022-12-02T23:19:37.745Z,-1.72
2022-12-02T23:22:07.913Z,-1.59
2022-12-02T23:24:36.388Z,-1.74
2022-12-02T23:27:04.663Z,-1.61
2022-12-02T23:29:33.408Z,-1.89
2022-12-02T23:32:02.066Z,-1.75
2022-12-02T23:34:30.440Z,-2.01
2022-12-02T23:36:58.776Z,-1.50
2022-12-02T23:39:28.741Z,-1.39
2022-12-02T23:41:57.709Z,-1.43
2022-12-02T23:44:26.624Z,-1.59
2022-12-02T23:46:54.908Z,-1.49
2022-12-02T23:49:23.380Z,-1.43
2022-12-02T23:51:51.760Z,-2.13
2022-12-02T23:54:20.043Z,-1.42
2022-12-02T23:56:49.713Z,-2.16
2022-12-02T23:59:18.077Z,-1.48
